Sciota, PA

9:58 AM EDT on August 21, 2014 (GMT -0400)
Andover | Change Station
CLOSE
Current Station
Airport
Location: Andover,
Elevation: 581 ft
Nearby Weather Stations

Elev 581 ft 41.01 °N, 74.74 °W | Updated 4 minutes ago

Rain
Rain
74 °F
Feels Like 74 °F
N
5
Wind Variable Wind from Variable
Gusts 3 mph

Today
High -- | Low -- °F
--% Chance of Precip.
Yesterday
High -- | Low -- °F
Precip. -- in
6:16 AM 7:50 PM
Waning Crescent, 14% visible
Pressure 30.04 in
Visibility -9999.0 miles
Clouds
Dew Point 60 °F
Humidity 62%
Rainfall 0.00 in
Snow Depth Not available.
UV Not available.
Pollen 8.20 out of 12
Air Quality Not available.
Flu Activity Not available.
METAR K12N 211354Z AUTO VRB04KT 23/16 A3006 RMK AO1 SLP173 T02330156

More Conditions Fewer Conditions

Pressure 30.04 in
Visibility -9999.0 miles
Clouds
Dew Point 60 °F
Humidity 62%
Rainfall 0.00 in
Snow Depth Not available.
UV Not available.
Pollen 8.20 out of 12
Air Quality Not available.
Flu Activity Not available.
METAR K12N 211354Z AUTO VRB04KT 23/16 A3006 RMK AO1 SLP173 T02330156

More Conditions Fewer Conditions

10-Day Weather Forecast

Almanac

Astronomy

Aug. 21, 2014 Rise Set
Actual Time 6:16 AM EDT 7:50 PM EDT
Civil Twilight 5:47 AM EDT 8:19 PM EDT
Nautical Twilight 5:12 AM EDT 8:54 PM EDT
Astronomical Twilight 4:35 AM EDT 9:31 PM EDT
Moon 2:44 AM EDT 5:18 PM EDT
Length of Visible Light 14h 31m
Length of Day
13h 33m
Tomorrow will be 2m 30s shorter.
Waning Crescent, 14% of the Moon is Illuminated
Today
Waning Crescent
Aug 25
New
Sep 2
First Quarter
Sep 8
Full
Sep 15
Last Quarter

Today's Extremes

State Highs State Lows

Community

WunderPhotos

Upload Photos

1,745,918 photos uploaded!

WunderBlogs® & News

Nearby

Snow Depth

Station Depth Elevation
No new snow has been reported.

Earthquake Activity

City Distance Mag. Time & Date
No recent earthquake activity has been reported nearby.
Minimum magnitude displayed is 2.5.

Coastal Water Temperatures

Place Temperature
No Stations Reporting

Nearby Weather Stations